createdAt,value
2022-10-23T00:00:49.588Z,969.43
2022-10-23T00:01:49.502Z,969.42
2022-10-23T00:02:50.545Z,969.42
2022-10-23T00:03:49.480Z,969.40
2022-10-23T00:04:49.464Z,969.42
2022-10-23T00:05:49.471Z,969.47
2022-10-23T00:06:49.431Z,969.46
2022-10-23T00:07:49.414Z,969.44
2022-10-23T00:08:49.392Z,969.42
2022-10-23T00:09:49.383Z,969.44
2022-10-23T00:10:49.396Z,969.45
2022-10-23T00:11:49.353Z,969.47
2022-10-23T00:12:49.330Z,969.44
2022-10-23T00:13:49.326Z,969.46
2022-10-23T00:14:49.289Z,969.42
2022-10-23T00:15:49.404Z,969.43
2022-10-23T00:16:49.259Z,969.46
2022-10-23T00:17:49.239Z,969.48
2022-10-23T00:18:49.217Z,969.45
2022-10-23T00:19:50.210Z,969.42
2022-10-23T00:20:49.221Z,969.42
2022-10-23T00:21:49.170Z,969.40
2022-10-23T00:22:49.146Z,969.39
2022-10-23T00:23:49.133Z,969.41
2022-10-23T00:24:49.122Z,969.34
2022-10-23T00:25:49.141Z,969.41
2022-10-23T00:26:49.088Z,969.34
2022-10-23T00:27:49.064Z,969.37
2022-10-23T00:28:49.060Z,969.38
2022-10-23T00:29:49.029Z,969.38
2022-10-23T00:30:49.046Z,969.39
2022-10-23T00:31:48.993Z,969.45
2022-10-23T00:32:48.989Z,969.45
2022-10-23T00:33:48.962Z,969.44
2022-10-23T00:34:48.944Z,969.49
2022-10-23T00:35:49.982Z,969.53
2022-10-23T00:36:48.919Z,969.47
2022-10-23T00:37:48.893Z,969.55
2022-10-23T00:38:48.872Z,969.48
2022-10-23T00:39:49.856Z,969.48
2022-10-23T00:41:48.843Z,969.46
2022-10-23T00:42:48.806Z,969.44
2022-10-23T00:43:48.812Z,969.45
2022-10-23T00:44:48.771Z,969.34
2022-10-23T00:45:48.788Z,969.42
2022-10-23T00:46:48.740Z,969.42
2022-10-23T00:47:48.730Z,969.44
2022-10-23T00:48:48.704Z,969.46
2022-10-23T00:49:48.718Z,969.37
2022-10-23T00:50:48.710Z,969.44
2022-10-23T00:51:48.651Z,969.43
2022-10-23T00:52:48.637Z,969.45
2022-10-23T00:53:56.732Z,969.41
2022-10-23T00:54:50.598Z,969.38
2022-10-23T00:55:48.631Z,969.41
2022-10-23T00:56:48.564Z,969.40
2022-10-23T00:57:48.547Z,969.39
2022-10-23T00:58:48.545Z,969.38
2022-10-23T00:59:48.515Z,969.31
2022-10-23T01:00:48.529Z,969.41
2022-10-23T01:01:48.589Z,969.36
2022-10-23T01:02:48.476Z,969.42
2022-10-23T01:03:48.460Z,969.41
2022-10-23T01:04:48.442Z,969.40
2022-10-23T01:06:48.406Z,969.37
2022-10-23T01:07:48.387Z,969.34
2022-10-23T01:08:48.370Z,969.31
2022-10-23T01:09:48.373Z,969.29
2022-10-23T01:10:48.376Z,969.23
2022-10-23T01:11:48.325Z,969.25
2022-10-23T01:12:48.310Z,969.24
2022-10-23T01:13:48.298Z,969.23
2022-10-23T01:14:48.269Z,969.29
2022-10-23T01:15:48.295Z,969.31
2022-10-23T01:16:48.230Z,969.30
2022-10-23T01:17:48.360Z,969.32
2022-10-23T01:18:48.193Z,969.27
2022-10-23T01:19:48.186Z,969.35
2022-10-23T01:20:48.201Z,969.32
2022-10-23T01:21:48.150Z,969.28
2022-10-23T01:22:48.131Z,969.28
2022-10-23T01:23:48.123Z,969.22
2022-10-23T01:24:48.104Z,969.25
2022-10-23T01:25:48.119Z,969.28
2022-10-23T01:26:48.079Z,969.23
2022-10-23T01:27:48.045Z,969.30
2022-10-23T01:28:48.048Z,969.25
2022-10-23T01:29:48.009Z,969.21
2022-10-23T01:30:49.031Z,969.28
2022-10-23T01:31:47.982Z,969.26
2022-10-23T01:32:47.974Z,969.29
2022-10-23T01:33:47.948Z,969.19
2022-10-23T01:34:47.943Z,969.25
2022-10-23T01:35:47.949Z,969.23
2022-10-23T01:36:47.891Z,969.24
2022-10-23T01:37:47.889Z,969.23
2022-10-23T01:38:48.867Z,969.20
2022-10-23T01:39:47.840Z,969.18
2022-10-23T01:40:47.867Z,969.21
2022-10-23T01:41:47.844Z,969.20
2022-10-23T01:42:47.795Z,969.20
2022-10-23T01:43:47.787Z,969.22
2022-10-23T01:44:47.758Z,969.19
2022-10-23T01:45:47.784Z,969.17
2022-10-23T01:46:47.722Z,969.23
2022-10-23T01:47:47.707Z,969.21
2022-10-23T01:48:47.696Z,969.18
2022-10-23T01:49:47.680Z,969.21
2022-10-23T01:50:47.690Z,969.12
2022-10-23T01:51:47.640Z,969.18
2022-10-23T01:52:47.634Z,969.12
2022-10-23T01:53:47.605Z,969.17
2022-10-23T01:54:47.604Z,969.15
2022-10-23T01:55:47.611Z,969.12
2022-10-23T01:56:47.566Z,969.10
2022-10-23T01:57:47.546Z,969.10
2022-10-23T01:58:47.528Z,969.16
2022-10-23T01:59:47.538Z,969.13
2022-10-23T02:00:47.536Z,969.06
2022-10-23T02:01:47.590Z,969.15
2022-10-23T02:02:47.464Z,969.12
2022-10-23T02:03:47.502Z,969.06
2022-10-23T02:04:47.428Z,969.15
2022-10-23T02:05:47.442Z,969.10
2022-10-23T02:06:47.390Z,969.19
2022-10-23T02:07:47.385Z,969.22
2022-10-23T02:08:47.364Z,969.23
2022-10-23T02:09:47.351Z,969.28
2022-10-23T02:10:47.358Z,969.18
2022-10-23T02:11:47.311Z,969.19
2022-10-23T02:12:47.300Z,969.27
2022-10-23T02:13:47.278Z,969.19
2022-10-23T02:14:47.257Z,969.28
2022-10-23T02:15:47.285Z,969.16
2022-10-23T02:16:47.244Z,969.15
2022-10-23T02:17:47.205Z,969.15
2022-10-23T02:18:47.207Z,969.16
2022-10-23T02:19:47.184Z,969.18
2022-10-23T02:20:47.194Z,969.27
2022-10-23T02:21:47.138Z,969.17
2022-10-23T02:22:47.128Z,969.28
2022-10-23T02:23:47.104Z,969.17
2022-10-23T02:24:47.097Z,969.11
2022-10-23T02:25:47.106Z,969.11
2022-10-23T02:26:47.059Z,969.10
2022-10-23T02:27:47.069Z,969.06
2022-10-23T02:28:47.027Z,969.03
2022-10-23T02:29:47.025Z,969.02
2022-10-23T02:30:47.034Z,969.04
2022-10-23T02:31:46.970Z,969.05
2022-10-23T02:32:46.955Z,969.03
2022-10-23T02:33:46.952Z,969.00
2022-10-23T02:34:46.921Z,968.98
2022-10-23T02:35:46.941Z,968.97
2022-10-23T02:36:46.890Z,968.97
2022-10-23T02:37:46.874Z,968.90
2022-10-23T02:38:46.860Z,968.87
2022-10-23T02:39:46.842Z,968.86
2022-10-23T02:40:46.864Z,968.79
2022-10-23T02:41:46.806Z,968.76
2022-10-23T02:42:46.798Z,968.75
2022-10-23T02:43:46.814Z,968.78
2022-10-23T02:44:46.766Z,968.78
2022-10-23T02:45:46.782Z,968.74
2022-10-23T02:46:46.732Z,968.76
2022-10-23T02:47:46.712Z,968.81
2022-10-23T02:48:46.709Z,968.73
2022-10-23T02:49:46.671Z,968.73
2022-10-23T02:50:46.694Z,968.81
2022-10-23T02:51:46.637Z,968.80
2022-10-23T02:52:46.626Z,968.80
2022-10-23T02:53:46.664Z,968.81
2022-10-23T02:54:46.594Z,968.83
2022-10-23T02:55:46.616Z,968.80
2022-10-23T02:56:46.551Z,968.80
2022-10-23T02:57:46.557Z,968.80
2022-10-23T02:58:46.524Z,968.80
2022-10-23T02:59:46.517Z,968.85
2022-10-23T03:00:46.533Z,968.83
2022-10-23T03:01:46.606Z,968.82
2022-10-23T03:02:46.448Z,968.79
2022-10-23T03:03:46.442Z,968.81
2022-10-23T03:04:46.415Z,968.76
2022-10-23T03:05:46.432Z,968.75
2022-10-23T03:06:46.382Z,968.72
2022-10-23T03:07:46.371Z,968.69
2022-10-23T03:08:46.365Z,968.62
2022-10-23T03:09:46.356Z,968.63
2022-10-23T03:10:46.351Z,968.70
2022-10-23T03:11:46.377Z,968.61
2022-10-23T03:12:46.353Z,968.60
2022-10-23T03:13:46.269Z,968.60
2022-10-23T03:14:46.301Z,968.63
2022-10-23T03:15:46.275Z,968.60
2022-10-23T03:16:46.221Z,968.60
2022-10-23T03:17:46.204Z,968.62
2022-10-23T03:18:46.196Z,968.62
2022-10-23T03:19:46.190Z,968.61
2022-10-23T03:20:46.179Z,968.59
2022-10-23T03:21:46.134Z,968.64
2022-10-23T03:22:46.378Z,968.61
2022-10-23T03:23:46.115Z,968.60
2022-10-23T03:24:46.097Z,968.60
2022-10-23T03:25:46.106Z,968.58
2022-10-23T03:26:46.049Z,968.60
2022-10-23T03:27:46.040Z,968.58
2022-10-23T03:28:46.026Z,968.59
2022-10-23T03:29:46.010Z,968.57
2022-10-23T03:30:46.014Z,968.58
2022-10-23T03:31:46.964Z,968.57
2022-10-23T03:32:46.051Z,968.57
2022-10-23T03:33:45.934Z,968.56
2022-10-23T03:34:45.934Z,968.49
2022-10-23T03:35:45.943Z,968.55
2022-10-23T03:36:45.903Z,968.47
2022-10-23T03:38:31.203Z,968.51
2022-10-23T03:38:45.863Z,968.47
2022-10-23T03:39:45.836Z,968.50
2022-10-23T03:40:45.849Z,968.48
2022-10-23T03:41:45.827Z,968.47
2022-10-23T03:42:45.801Z,968.55
2022-10-23T03:43:45.800Z,968.49
2022-10-23T03:44:45.770Z,968.51
2022-10-23T03:45:45.779Z,968.48
2022-10-23T03:46:45.741Z,968.43
2022-10-23T03:47:45.791Z,968.52
2022-10-23T03:48:45.697Z,968.49
2022-10-23T03:49:45.707Z,968.54
2022-10-23T03:50:45.699Z,968.53
2022-10-23T03:51:45.648Z,968.52
2022-10-23T03:52:45.982Z,968.51
2022-10-23T03:53:45.621Z,968.48
2022-10-23T03:54:45.622Z,968.53
2022-10-23T03:55:45.609Z,968.48
2022-10-23T03:56:45.569Z,968.53
2022-10-23T03:57:45.549Z,968.42
2022-10-23T03:58:45.524Z,968.32
2022-10-23T03:59:45.515Z,968.40
2022-10-23T04:00:45.530Z,968.42
2022-10-23T04:01:45.507Z,968.38
2022-10-23T04:02:45.785Z,968.36
2022-10-23T04:03:45.454Z,968.34
2022-10-23T04:04:45.448Z,968.35
2022-10-23T04:05:45.443Z,968.32
2022-10-23T04:06:45.398Z,968.38
2022-10-23T04:07:45.381Z,968.36
2022-10-23T04:08:45.368Z,968.33
2022-10-23T04:09:45.335Z,968.32
2022-10-23T04:10:45.352Z,968.32
2022-10-23T04:11:45.299Z,968.30
2022-10-23T04:12:45.631Z,968.25
2022-10-23T04:13:45.291Z,968.35
2022-10-23T04:14:45.269Z,968.37
2022-10-23T04:15:45.276Z,968.29
2022-10-23T04:16:45.229Z,968.31
2022-10-23T04:17:45.201Z,968.34
2022-10-23T04:18:45.193Z,968.30
2022-10-23T04:19:45.167Z,968.33
2022-10-23T04:20:45.178Z,968.33
2022-10-23T04:21:45.145Z,968.28
2022-10-23T04:22:45.746Z,968.26
2022-10-23T04:23:45.135Z,968.24
2022-10-23T04:24:45.098Z,968.26
2022-10-23T04:25:45.165Z,968.25
2022-10-23T04:26:45.065Z,968.24
2022-10-23T04:27:45.419Z,968.20
2022-10-23T04:28:45.016Z,968.25
2022-10-23T04:29:45.012Z,968.22
2022-10-23T04:30:45.028Z,968.20
2022-10-23T04:31:44.971Z,968.21
2022-10-23T04:32:44.935Z,968.18
2022-10-23T04:33:44.928Z,968.20
2022-10-23T04:34:44.904Z,968.16
2022-10-23T04:35:44.937Z,968.11
2022-10-23T04:36:44.874Z,968.11
2022-10-23T04:37:45.145Z,968.10
2022-10-23T04:38:44.863Z,968.07
2022-10-23T04:39:44.825Z,968.09
2022-10-23T04:40:45.854Z,968.08
2022-10-23T04:41:44.791Z,968.06
2022-10-23T04:42:45.081Z,968.06
2022-10-23T04:43:44.754Z,968.07
2022-10-23T04:44:44.768Z,968.06
2022-10-23T04:45:44.759Z,968.07
2022-10-23T04:46:44.722Z,968.04
2022-10-23T04:47:44.685Z,968.07
2022-10-23T04:48:44.682Z,968.06
2022-10-23T04:49:44.686Z,968.08
2022-10-23T04:51:44.617Z,968.09
2022-10-23T04:52:44.912Z,968.09
2022-10-23T04:53:44.583Z,968.12
2022-10-23T04:54:44.569Z,968.15
2022-10-23T04:55:44.588Z,968.09
2022-10-23T04:56:44.534Z,968.10
2022-10-23T04:57:44.538Z,968.08
2022-10-23T04:58:44.495Z,968.09
2022-10-23T04:59:44.523Z,968.08
2022-10-23T05:00:44.575Z,968.10
2022-10-23T05:01:44.534Z,968.14
2022-10-23T05:02:44.628Z,968.12
2022-10-23T05:03:44.424Z,968.15
2022-10-23T05:04:44.400Z,968.18
2022-10-23T05:05:44.423Z,968.19
2022-10-23T05:06:44.371Z,968.11
2022-10-23T05:07:44.691Z,968.19
2022-10-23T05:08:44.380Z,968.17
2022-10-23T05:09:44.323Z,968.15
2022-10-23T05:10:44.333Z,968.14
2022-10-23T05:11:44.286Z,968.06
2022-10-23T05:12:44.269Z,968.04
2022-10-23T05:13:44.247Z,967.99
2022-10-23T05:14:44.243Z,968.03
2022-10-23T05:16:44.218Z,967.97
2022-10-23T05:17:44.374Z,967.95
2022-10-23T05:18:44.177Z,967.96
2022-10-23T05:19:44.143Z,967.90
2022-10-23T05:20:44.174Z,967.87
2022-10-23T05:21:44.111Z,967.84
2022-10-23T05:22:44.121Z,967.88
2022-10-23T05:23:44.093Z,967.91
2022-10-23T05:24:46.996Z,967.93
2022-10-23T05:25:46.102Z,967.94
2022-10-23T05:26:44.035Z,967.91
2022-10-23T05:27:44.263Z,968.02
2022-10-23T05:28:43.994Z,968.00
2022-10-23T05:29:43.986Z,967.97
2022-10-23T05:30:44.008Z,968.04
2022-10-23T05:31:43.944Z,968.05
2022-10-23T05:32:44.295Z,968.03
2022-10-23T05:33:44.203Z,968.09
2022-10-23T05:34:43.892Z,968.09
2022-10-23T05:35:43.930Z,968.04
2022-10-23T05:36:43.853Z,968.08
2022-10-23T05:37:43.855Z,968.10
2022-10-23T05:38:43.827Z,968.07
2022-10-23T05:39:43.809Z,968.16
2022-10-23T05:40:43.820Z,968.10
2022-10-23T05:41:43.773Z,968.04
2022-10-23T05:42:44.176Z,968.09
2022-10-23T05:43:44.742Z,967.99
2022-10-23T05:44:43.725Z,967.99
2022-10-23T05:45:43.745Z,967.95
2022-10-23T05:46:43.694Z,967.87
2022-10-23T05:47:43.668Z,967.84
2022-10-23T05:48:43.656Z,967.88
2022-10-23T05:49:43.637Z,967.83
2022-10-23T05:50:43.647Z,967.90
2022-10-23T05:51:43.604Z,967.88
2022-10-23T05:52:43.815Z,967.89
2022-10-23T05:53:43.567Z,967.92
2022-10-23T05:54:43.555Z,967.94
2022-10-23T05:55:43.571Z,967.95
2022-10-23T05:56:43.508Z,967.88
2022-10-23T05:57:43.693Z,967.79
2022-10-23T05:58:43.476Z,967.86
2022-10-23T05:59:43.476Z,967.81
2022-10-23T06:00:43.479Z,967.80
2022-10-23T06:01:43.628Z,967.89
2022-10-23T06:02:43.451Z,967.87
2022-10-23T06:03:43.438Z,967.90
2022-10-23T06:04:43.384Z,967.79
2022-10-23T06:05:43.414Z,967.76
2022-10-23T06:06:43.361Z,967.79
2022-10-23T06:07:43.848Z,967.79
2022-10-23T06:08:43.309Z,967.73
2022-10-23T06:09:43.301Z,967.82
2022-10-23T06:10:43.292Z,967.74
2022-10-23T06:11:43.302Z,967.74
2022-10-23T06:12:43.257Z,967.74
2022-10-23T06:13:43.265Z,967.75
2022-10-23T06:14:43.237Z,967.76
2022-10-23T06:15:43.193Z,967.75
2022-10-23T06:16:43.203Z,967.80
2022-10-23T06:17:43.465Z,967.85
2022-10-23T06:18:43.157Z,967.85
2022-10-23T06:19:43.116Z,967.83
2022-10-23T06:20:43.113Z,967.85
2022-10-23T06:21:43.135Z,967.84
2022-10-23T06:22:43.312Z,967.77
2022-10-23T06:23:43.079Z,967.77
2022-10-23T06:24:43.041Z,967.69
2022-10-23T06:25:43.042Z,967.69
2022-10-23T06:26:43.062Z,967.68
2022-10-23T06:27:43.003Z,967.67
2022-10-23T06:28:42.957Z,967.68
2022-10-23T06:29:42.986Z,967.62
2022-10-23T06:30:42.934Z,967.66
2022-10-23T06:31:42.954Z,967.67
2022-10-23T06:32:43.177Z,967.67
2022-10-23T06:33:42.905Z,967.71
2022-10-23T06:34:42.869Z,967.74
2022-10-23T06:35:42.857Z,967.74
2022-10-23T06:36:42.873Z,967.70
2022-10-23T06:37:42.824Z,967.70
2022-10-23T06:38:42.820Z,967.72
2022-10-23T06:39:42.799Z,967.59
2022-10-23T06:40:42.807Z,967.60
2022-10-23T06:41:42.807Z,967.59
2022-10-23T06:42:42.923Z,967.57
2022-10-23T06:43:42.739Z,967.62
2022-10-23T06:44:42.722Z,967.59
2022-10-23T06:45:42.710Z,967.66
2022-10-23T06:46:42.727Z,967.61
2022-10-23T06:47:42.995Z,967.60
2022-10-23T06:48:42.668Z,967.64
2022-10-23T06:49:42.658Z,967.64
2022-10-23T06:50:42.611Z,967.67
2022-10-23T06:51:42.652Z,967.69
2022-10-23T06:52:46.905Z,967.66
2022-10-23T06:53:44.572Z,967.67
2022-10-23T06:54:42.579Z,967.68
2022-10-23T06:55:42.594Z,967.68
2022-10-23T06:56:42.639Z,967.69
2022-10-23T06:57:42.929Z,967.67
2022-10-23T06:58:42.459Z,967.71
2022-10-23T06:59:42.458Z,967.74
2022-10-23T07:00:42.488Z,967.67
2022-10-23T07:01:42.615Z,967.60
2022-10-23T07:02:42.606Z,967.72
2022-10-23T07:03:42.418Z,967.70
2022-10-23T07:04:42.383Z,967.76
2022-10-23T07:05:42.364Z,967.75
2022-10-23T07:06:42.396Z,967.77
2022-10-23T07:07:42.353Z,967.75
2022-10-23T07:08:42.356Z,967.70
2022-10-23T07:09:42.318Z,967.73
2022-10-23T07:10:42.271Z,967.75
2022-10-23T07:11:42.406Z,967.72
2022-10-23T07:12:42.644Z,967.68
2022-10-23T07:13:42.270Z,967.68
2022-10-23T07:14:42.265Z,967.64
2022-10-23T07:15:42.205Z,967.61
2022-10-23T07:16:42.214Z,967.63
2022-10-23T07:17:42.176Z,967.64
2022-10-23T07:18:42.136Z,967.62
2022-10-23T07:19:42.135Z,967.66
2022-10-23T07:20:42.106Z,967.58
2022-10-23T07:21:42.119Z,967.66
2022-10-23T07:22:42.379Z,967.54
2022-10-23T07:23:42.058Z,967.56
2022-10-23T07:24:42.030Z,967.58
2022-10-23T07:25:42.070Z,967.59
2022-10-23T07:26:42.118Z,967.59
2022-10-23T07:27:42.362Z,967.58
2022-10-23T07:28:41.991Z,967.47
2022-10-23T07:29:41.962Z,967.51
2022-10-23T07:30:41.943Z,967.49
2022-10-23T07:31:41.979Z,967.60
2022-10-23T07:32:41.924Z,967.54
2022-10-23T07:33:41.874Z,967.56
2022-10-23T07:34:41.876Z,967.44
2022-10-23T07:35:41.841Z,967.50
2022-10-23T07:36:41.885Z,967.55
2022-10-23T07:37:42.140Z,967.52
2022-10-23T07:38:41.821Z,967.47
2022-10-23T07:39:41.815Z,967.47
2022-10-23T07:40:41.780Z,967.48
2022-10-23T07:41:41.767Z,967.46
2022-10-23T07:42:41.765Z,967.47
2022-10-23T07:43:41.739Z,967.44
2022-10-23T07:44:41.691Z,967.40
2022-10-23T07:45:41.692Z,967.30
2022-10-23T07:46:41.754Z,967.35
2022-10-23T07:47:42.067Z,967.41
2022-10-23T07:48:41.658Z,967.42
2022-10-23T07:49:41.732Z,967.43
2022-10-23T07:50:41.616Z,967.48
2022-10-23T07:51:41.692Z,967.41
2022-10-23T07:52:41.612Z,967.42
2022-10-23T07:53:41.576Z,967.38
2022-10-23T07:54:41.567Z,967.36
2022-10-23T07:55:41.524Z,967.34
2022-10-23T07:56:41.538Z,967.27
2022-10-23T07:57:41.497Z,967.38
2022-10-23T07:58:41.485Z,967.40
2022-10-23T07:59:41.503Z,967.42
2022-10-23T08:00:41.431Z,967.47
2022-10-23T08:01:41.507Z,967.37
2022-10-23T08:02:41.604Z,967.41
2022-10-23T08:03:41.403Z,967.30
2022-10-23T08:04:41.373Z,967.27
2022-10-23T08:05:41.350Z,967.34
2022-10-23T08:06:41.355Z,967.21
2022-10-23T08:07:41.311Z,967.26
2022-10-23T08:08:41.343Z,967.25
2022-10-23T08:09:41.290Z,967.21
2022-10-23T08:10:41.315Z,967.28
2022-10-23T08:11:41.289Z,967.33
2022-10-23T08:12:41.576Z,967.30
2022-10-23T08:13:41.229Z,967.35
2022-10-23T08:14:41.228Z,967.30
2022-10-23T08:15:41.205Z,967.32
2022-10-23T08:16:41.215Z,967.24
2022-10-23T08:17:41.402Z,967.19
2022-10-23T08:18:41.187Z,967.13
2022-10-23T08:19:41.129Z,967.14
2022-10-23T08:20:41.124Z,967.15
2022-10-23T08:21:41.125Z,967.19
2022-10-23T08:22:41.076Z,967.21
2022-10-23T08:23:41.063Z,967.12
2022-10-23T08:24:41.052Z,967.13
2022-10-23T08:25:41.051Z,967.11
2022-10-23T08:26:41.074Z,967.16
2022-10-23T08:27:41.410Z,967.09
2022-10-23T08:28:41.011Z,967.10
2022-10-23T08:29:40.977Z,967.06
2022-10-23T08:30:40.989Z,967.08
2022-10-23T08:31:40.983Z,967.02
2022-10-23T08:32:40.939Z,967.10
2022-10-23T08:33:40.948Z,967.09
2022-10-23T08:34:40.919Z,967.12
2022-10-23T08:35:40.890Z,967.12
2022-10-23T08:36:40.900Z,967.09
2022-10-23T08:37:40.953Z,967.03
2022-10-23T08:38:41.824Z,967.07
2022-10-23T08:39:40.817Z,967.04
2022-10-23T08:40:40.791Z,967.02
2022-10-23T08:41:40.865Z,966.96
2022-10-23T08:42:40.866Z,966.98
2022-10-23T08:43:40.751Z,967.00
2022-10-23T08:44:40.746Z,966.97
2022-10-23T08:45:40.706Z,967.04
2022-10-23T08:46:40.741Z,967.05
2022-10-23T08:47:40.696Z,966.99
2022-10-23T08:48:40.666Z,966.90
2022-10-23T08:49:40.628Z,966.90
2022-10-23T08:50:40.628Z,966.98
2022-10-23T08:51:40.632Z,966.91
2022-10-23T08:52:40.814Z,966.91
2022-10-23T08:53:40.576Z,966.96
2022-10-23T08:54:40.577Z,966.98
2022-10-23T08:55:40.543Z,966.97
2022-10-23T08:56:41.559Z,967.01
2022-10-23T08:57:42.881Z,967.01
2022-10-23T08:58:40.513Z,966.96
2022-10-23T08:59:40.481Z,966.97
2022-10-23T09:00:40.513Z,966.99
2022-10-23T09:01:40.664Z,966.87
2022-10-23T09:02:40.653Z,966.85
2022-10-23T09:03:40.413Z,966.80
2022-10-23T09:04:40.404Z,966.80
2022-10-23T09:05:40.380Z,966.81
2022-10-23T09:06:40.412Z,966.79
2022-10-23T09:07:40.454Z,966.91
2022-10-23T09:08:40.350Z,966.85
2022-10-23T09:09:40.335Z,966.82
2022-10-23T09:10:40.336Z,966.75
2022-10-23T09:11:40.316Z,966.77
2022-10-23T09:12:40.272Z,966.73
2022-10-23T09:13:40.269Z,966.69
2022-10-23T09:14:40.243Z,966.69
2022-10-23T09:15:40.230Z,966.69
2022-10-23T09:16:40.233Z,966.74
2022-10-23T09:17:40.411Z,966.68
2022-10-23T09:18:40.185Z,966.78
2022-10-23T09:19:40.152Z,966.85
2022-10-23T09:20:40.150Z,966.91
2022-10-23T09:21:40.159Z,966.86
2022-10-23T09:22:40.129Z,967.02
2022-10-23T09:23:40.094Z,966.80
2022-10-23T09:24:40.073Z,966.74
2022-10-23T09:25:40.056Z,966.68
2022-10-23T09:26:40.092Z,966.75
2022-10-23T09:27:40.301Z,966.73
2022-10-23T09:28:40.015Z,966.75
2022-10-23T09:29:40.032Z,966.68
2022-10-23T09:30:39.991Z,966.66
2022-10-23T09:31:40.005Z,966.73
2022-10-23T09:32:39.954Z,966.64
2022-10-23T09:33:39.953Z,966.63
2022-10-23T09:34:39.935Z,966.65
2022-10-23T09:35:39.907Z,966.64
2022-10-23T09:36:39.918Z,966.64
2022-10-23T09:37:40.007Z,966.65
2022-10-23T09:39:12.213Z,966.68
2022-10-23T09:39:39.833Z,966.65
2022-10-23T09:40:39.815Z,966.75
2022-10-23T09:41:39.842Z,966.74
2022-10-23T09:42:39.776Z,966.68
2022-10-23T09:43:39.769Z,966.74
2022-10-23T09:44:39.738Z,966.71
2022-10-23T09:45:40.724Z,966.62
2022-10-23T09:46:39.807Z,966.66
2022-10-23T09:47:40.921Z,966.72
2022-10-23T09:48:39.676Z,966.68
2022-10-23T09:49:39.668Z,966.68
2022-10-23T09:50:39.645Z,966.74
2022-10-23T09:51:39.673Z,966.73
2022-10-23T09:52:39.616Z,966.67
2022-10-23T09:53:39.610Z,966.67
2022-10-23T09:54:39.587Z,966.72
2022-10-23T09:55:39.565Z,966.64
2022-10-23T09:56:39.618Z,966.74
2022-10-23T09:57:39.520Z,966.79
2022-10-23T09:58:39.517Z,966.64
2022-10-23T09:59:39.502Z,966.65
2022-10-23T10:00:39.525Z,966.70
2022-10-23T10:01:39.590Z,966.61
2022-10-23T10:02:39.455Z,966.60
2022-10-23T10:03:39.425Z,966.62
2022-10-23T10:04:39.421Z,966.60
2022-10-23T10:05:39.392Z,966.70
2022-10-23T10:06:39.447Z,966.74
2022-10-23T10:07:39.354Z,966.63
2022-10-23T10:08:39.350Z,966.60
2022-10-23T10:09:39.333Z,966.60
2022-10-23T10:10:39.318Z,966.68
2022-10-23T10:11:39.328Z,966.61
2022-10-23T10:12:39.287Z,966.57
2022-10-23T10:13:39.267Z,966.65
2022-10-23T10:14:39.240Z,966.62
2022-10-23T10:15:39.232Z,966.59
2022-10-23T10:17:39.196Z,966.58
2022-10-23T10:18:39.196Z,966.51
2022-10-23T10:19:39.163Z,966.53
2022-10-23T10:20:39.157Z,966.55
2022-10-23T10:21:39.171Z,966.54
2022-10-23T10:22:39.123Z,966.48
2022-10-23T10:23:39.089Z,966.53
2022-10-23T10:24:39.098Z,966.49
2022-10-23T10:25:39.057Z,966.52
2022-10-23T10:26:39.086Z,966.59
2022-10-23T10:27:39.026Z,966.54
2022-10-23T10:28:39.021Z,966.49
2022-10-23T10:29:38.997Z,966.54
2022-10-23T10:30:38.987Z,966.43
2022-10-23T10:31:38.989Z,966.46
2022-10-23T10:32:38.948Z,966.45
2022-10-23T10:33:38.923Z,966.44
2022-10-23T10:34:38.917Z,966.42
2022-10-23T10:35:38.909Z,966.47
2022-10-23T10:36:38.926Z,966.46
2022-10-23T10:37:38.876Z,966.43
2022-10-23T10:38:38.850Z,966.45
2022-10-23T10:39:38.834Z,966.39
2022-10-23T10:40:38.811Z,966.45
2022-10-23T10:41:38.851Z,966.33
2022-10-23T10:42:38.806Z,966.27
2022-10-23T10:43:38.763Z,966.37
2022-10-23T10:44:38.763Z,966.41
2022-10-23T10:45:38.732Z,966.32
2022-10-23T10:46:38.754Z,966.34
2022-10-23T10:47:38.705Z,966.36
2022-10-23T10:48:38.714Z,966.31
2022-10-23T10:49:38.662Z,966.26
2022-10-23T10:50:38.653Z,966.24
2022-10-23T10:51:38.665Z,966.26
2022-10-23T10:52:38.616Z,966.25
2022-10-23T10:53:38.601Z,966.24
2022-10-23T10:54:38.587Z,966.28
2022-10-23T10:55:38.594Z,966.23
2022-10-23T10:56:38.604Z,966.17
2022-10-23T10:57:38.557Z,966.16
2022-10-23T10:58:38.510Z,966.23
2022-10-23T10:59:39.498Z,966.21
2022-10-23T11:00:38.482Z,966.19
2022-10-23T11:01:38.686Z,966.13
2022-10-23T11:02:38.458Z,966.07
2022-10-23T11:03:40.032Z,966.04
2022-10-23T11:04:38.425Z,966.02
2022-10-23T11:05:38.402Z,966.12
2022-10-23T11:06:38.416Z,966.03
2022-10-23T11:07:38.368Z,966.09
2022-10-23T11:08:49.878Z,966.07
2022-10-23T11:09:40.330Z,966.02
2022-10-23T11:10:38.308Z,966.09
2022-10-23T11:11:38.327Z,966.08
2022-10-23T11:12:38.274Z,966.05
2022-10-23T11:13:38.257Z,966.00
2022-10-23T11:14:38.251Z,966.00
2022-10-23T11:15:38.262Z,966.07
2022-10-23T11:16:38.240Z,965.99
2022-10-23T11:17:38.189Z,965.96
2022-10-23T11:18:38.186Z,965.87
2022-10-23T11:19:38.148Z,965.82
2022-10-23T11:20:38.143Z,966.00
2022-10-23T11:21:38.150Z,965.97
2022-10-23T11:22:38.105Z,965.89
2022-10-23T11:23:38.095Z,965.90
2022-10-23T11:24:38.078Z,965.79
2022-10-23T11:25:38.122Z,965.92
2022-10-23T11:26:38.111Z,965.81
2022-10-23T11:27:38.015Z,965.79
2022-10-23T11:28:37.995Z,965.85
2022-10-23T11:29:37.980Z,965.84
2022-10-23T11:30:37.964Z,965.69
2022-10-23T11:31:37.983Z,965.58
2022-10-23T11:32:37.931Z,965.65
2022-10-23T11:33:39.273Z,965.60
2022-10-23T11:34:37.899Z,965.55
2022-10-23T11:35:37.891Z,965.55
2022-10-23T11:36:37.897Z,965.51
2022-10-23T11:37:37.862Z,965.54
2022-10-23T11:38:37.823Z,965.58
2022-10-23T11:39:37.814Z,965.52
2022-10-23T11:40:37.891Z,965.56
2022-10-23T11:41:37.799Z,965.54
2022-10-23T11:42:37.767Z,965.52
2022-10-23T11:43:37.743Z,965.46
2022-10-23T11:44:37.722Z,965.45
2022-10-23T11:45:37.707Z,965.47
2022-10-23T11:46:37.718Z,965.53
2022-10-23T11:47:39.962Z,965.51
2022-10-23T11:48:38.656Z,965.45
2022-10-23T11:49:37.641Z,965.51
2022-10-23T11:50:37.638Z,965.45
2022-10-23T11:51:37.646Z,965.49
2022-10-23T11:52:45.525Z,965.50
2022-10-23T11:53:39.587Z,965.46
2022-10-23T11:54:37.562Z,965.44
2022-10-23T11:55:37.542Z,965.44
2022-10-23T11:56:37.571Z,965.45
2022-10-23T11:57:37.536Z,965.38
2022-10-23T11:58:37.490Z,965.44
2022-10-23T11:59:37.504Z,965.46
2022-10-23T12:00:37.472Z,965.43
2022-10-23T12:01:37.546Z,965.44
2022-10-23T12:02:37.505Z,965.49
2022-10-23T12:03:37.422Z,965.47
2022-10-23T12:04:37.391Z,965.47
2022-10-23T12:05:37.390Z,965.45
2022-10-23T12:06:37.389Z,965.38
2022-10-23T12:07:37.344Z,965.36
2022-10-23T12:08:37.328Z,965.39
2022-10-23T12:09:37.314Z,965.38
2022-10-23T12:10:37.307Z,965.36
2022-10-23T12:11:37.319Z,965.33
2022-10-23T12:12:37.268Z,965.36
2022-10-23T12:13:37.246Z,965.36
2022-10-23T12:14:37.238Z,965.32
2022-10-23T12:15:37.223Z,965.30
2022-10-23T12:16:37.246Z,965.28
2022-10-23T12:17:37.179Z,965.23
2022-10-23T12:18:37.166Z,965.14
2022-10-23T12:19:37.140Z,965.15
2022-10-23T12:20:37.138Z,965.13
2022-10-23T12:21:37.139Z,965.14
2022-10-23T12:22:37.107Z,965.06
2022-10-23T12:23:37.077Z,965.05
2022-10-23T12:24:37.060Z,965.12
2022-10-23T12:25:37.068Z,965.12
2022-10-23T12:26:37.070Z,965.00
2022-10-23T12:27:37.020Z,965.05
2022-10-23T12:28:36.995Z,965.04
2022-10-23T12:29:36.983Z,964.99
2022-10-23T12:30:36.963Z,964.99
2022-10-23T12:31:36.990Z,964.95
2022-10-23T12:32:36.932Z,964.93
2022-10-23T12:33:36.927Z,964.90